KGLS

Scholes International at Galveston Airport

Galveston, Texas, USA
METAR KGLS 220005Z AUTO 16012KT 2SM BR SCT025 BKN032 OVC041 22/21 A3009 RMK AO2 LTG DSNT W T02220211
Observed Flight Rules
Feb-22 @ 00:05 UTC (5 hours ago) Instrument Flight Rules
Wind Visibility Clouds Conditions
160° at 12 knots 2 miles
  • Scattered at 2,500' AGL
  • Broken at 3,200' AGL
  • Overcast at 4,100' AGL
  • Mist
Temperatures Readings
Current 22°C / 72°F
Dewpoint 21°C / 70°F
Humidity 94%
Altimeter 30.09" Hg
Pressure 1019 hPa
Elevation 6
METAR KGLS 220005Z AUTO 16012KT 2SM BR SCT025 BKN032 OVC041 22/21 A3009 RMK AO2 LTG DSNT W T02220211
Observed Flight Rules
Feb-22 @ 00:05 UTC
(5 hours ago)
IFR
Wind Visibility
160° at 12 knots 2 miles
Clouds
  • Scattered at 2,500' AGL
  • Broken at 3,200' AGL
  • Overcast at 4,100' AGL
Conditions
  • Mist
Temperature Dewpoint
22°C / 72°F 21°C / 70°F
Humidity Altimeter Pressure
94% 30.09" Hg 1019 hPa